Time;durP1;ratioP1;P1;durP2;ratioP2;P2;SDS_P1;SDS_P2;PMS_P1;PMS_P2;Temp;Humidity;BMP_temperature;BMP_pressure;BME280_temperature;BME280_humidity;BME280_pressure;Samples;Min_cycle;Max_cycle;Signal;HPM_P1;HPM_P2
2023/12/08 00:00:13;;;;;;;;;;;0.80;68.40;;;;;;4584599;30;114572;-80
2023/12/08 00:02:40;;;;;;;;;;;0.70;68.40;;;;;;4585336;30;115049;-80
2023/12/08 00:05:07;;;;;;;;;;;0.70;68.30;;;;;;4585354;30;114402;-80
2023/12/08 00:07:35;;;;;;;;;;;0.70;68.20;;;;;;4569427;30;116267;-81
2023/12/08 00:10:02;;;;;;;;;;;0.60;68.30;;;;;;4569699;30;114733;-81
2023/12/08 00:12:29;;;;;;;;;;;0.70;68.30;;;;;;4573438;30;114435;-79
2023/12/08 00:14:56;;;;;;;;;;;0.70;68.30;;;;;;4588270;30;114165;-79
2023/12/08 00:17:27;;;;;;;;;;;0.70;68.30;;;;;;4586800;30;115070;-80
2023/12/08 00:19:54;;;;;;;;;;;0.60;68.40;;;;;;4586882;30;115735;-81
2023/12/08 00:22:22;;;;;;;;;;;0.70;68.40;;;;;;4585951;30;114451;-82
2023/12/08 00:24:50;;;;;;;;;;;0.70;68.40;;;;;;4588109;30;114339;-80
2023/12/08 00:27:17;;;;;;;;;;;0.70;68.40;;;;;;4586842;30;114227;-79
2023/12/08 00:29:44;;;;;;;;;;;0.70;68.40;;;;;;4586800;30;116043;-80
2023/12/08 00:32:12;;;;;;;;;;;0.70;68.50;;;;;;4572661;30;114389;-80
2023/12/08 00:34:40;;;;;;;;;;;0.70;68.50;;;;;;4587848;30;114518;-79
2023/12/08 00:37:08;;;;;;;;;;;0.70;68.40;;;;;;4571788;30;115808;-80
2023/12/08 00:39:35;;;;;;;;;;;0.70;68.40;;;;;;4586754;30;114579;-80
2023/12/08 00:42:02;;;;;;;;;;;0.70;68.40;;;;;;4600352;30;114346;-80
2023/12/08 00:44:29;;;;;;;;;;;0.70;68.40;;;;;;4587590;30;114372;-80
2023/12/08 00:46:56;;;;;;;;;;;0.70;68.40;;;;;;4586473;30;114938;-80
2023/12/08 00:49:23;;;;;;;;;;;0.70;68.40;;;;;;4572090;30;114571;-79
2023/12/08 00:51:50;;;;;;;;;;;0.70;68.40;;;;;;4590017;30;114254;-80
2023/12/08 00:54:17;;;;;;;;;;;0.70;68.40;;;;;;4577937;30;114218;-79
2023/12/08 00:56:44;;;;;;;;;;;0.70;68.40;;;;;;4588210;30;115343;-79
2023/12/08 00:59:11;;;;;;;;;;;0.70;68.40;;;;;;4586604;30;116056;-80
2023/12/08 01:01:38;;;;;;;;;;;0.70;68.40;;;;;;4587659;30;114576;-79
2023/12/08 01:04:05;;;;;;;;;;;0.70;68.40;;;;;;4588513;30;114444;-79
2023/12/08 01:06:33;;;;;;;;;;;0.70;68.50;;;;;;4586623;30;115432;-80
2023/12/08 01:09:00;;;;;;;;;;;0.70;68.50;;;;;;4586602;30;114730;-80
2023/12/08 01:11:29;;;;;;;;;;;0.70;68.50;;;;;;4586258;30;114170;-79
2023/12/08 01:13:57;;;;;;;;;;;0.70;68.50;;;;;;4587226;30;114569;-80
2023/12/08 01:16:23;;;;;;;;;;;0.70;68.50;;;;;;4585720;30;115122;-79
2023/12/08 01:18:51;;;;;;;;;;;0.70;68.40;;;;;;4586188;30;114691;-79
2023/12/08 01:21:18;;;;;;;;;;;0.70;68.40;;;;;;4586555;30;114174;-80
2023/12/08 01:23:45;;;;;;;;;;;0.70;68.50;;;;;;4586797;30;114545;-79
2023/12/08 01:26:12;;;;;;;;;;;0.70;68.50;;;;;;4587415;30;115077;-80
2023/12/08 01:28:39;;;;;;;;;;;0.70;68.50;;;;;;4586778;30;114712;-79
2023/12/08 01:31:06;;;;;;;;;;;0.70;68.60;;;;;;4587303;30;114477;-79
2023/12/08 01:33:33;;;;;;;;;;;0.70;68.60;;;;;;4585827;30;114508;-79
2023/12/08 01:36:00;;;;;;;;;;;0.70;68.50;;;;;;4585784;30;115039;-79
2023/12/08 01:38:47;;;;;;;;;;;0.70;68.50;;;;;;4586280;30;114821;-79
2023/12/08 01:41:15;;;;;;;;;;;0.70;68.60;;;;;;4586620;30;114219;-80
2023/12/08 01:43:42;;;;;;;;;;;0.70;68.60;;;;;;4571870;30;114731;-80
2023/12/08 01:46:10;;;;;;;;;;;0.60;68.60;;;;;;4586240;30;115060;-79
2023/12/08 01:48:37;;;;;;;;;;;0.50;68.70;;;;;;4586082;30;114574;-79
2023/12/08 01:51:04;;;;;;;;;;;0.50;69.00;;;;;;4580052;30;114335;-79
2023/12/08 01:53:31;;;;;;;;;;;0.40;69.10;;;;;;4572349;30;114522;-79
2023/12/08 01:55:59;;;;;;;;;;;0.40;69.10;;;;;;4570908;30;115579;-80
2023/12/08 01:58:26;;;;;;;;;;;0.40;69.10;;;;;;4570779;30;114734;-80
2023/12/08 02:00:53;;;;;;;;;;;0.40;69.20;;;;;;4571078;30;114466;-80
2023/12/08 02:03:22;;;;;;;;;;;0.40;69.20;;;;;;4586780;30;114323;-79
2023/12/08 02:05:49;;;;;;;;;;;0.30;69.20;;;;;;4556447;30;115323;-79
2023/12/08 02:08:17;;;;;;;;;;;0.30;69.30;;;;;;4570775;30;116674;-80
2023/12/08 02:10:44;;;;;;;;;;;0.20;69.50;;;;;;4571343;30;114387;-79
2023/12/08 02:13:11;;;;;;;;;;;0.20;69.50;;;;;;4587021;30;114072;-80
2023/12/08 02:15:41;;;;;;;;;;;0.10;69.70;;;;;;4585761;30;115059;-80
2023/12/08 02:18:09;;;;;;;;;;;0.10;69.70;;;;;;4585782;30;114835;-80
2023/12/08 02:20:36;;;;;;;;;;;0.10;69.70;;;;;;4571034;30;114603;-80
2023/12/08 02:23:05;;;;;;;;;;;0.20;69.70;;;;;;4571090;30;114513;-79
2023/12/08 02:25:35;;;;;;;;;;;0.20;69.60;;;;;;4585280;30;114957;-79
2023/12/08 02:28:03;;;;;;;;;;;0.20;69.60;;;;;;4569763;30;117414;-79
2023/12/08 02:30:30;;;;;;;;;;;0.20;69.60;;;;;;4543603;30;114298;-79
2023/12/08 02:33:07;;;;;;;;;;;0.30;69.50;;;;;;4543669;30;114603;-78
2023/12/08 02:35:36;;;;;;;;;;;0.20;69.40;;;;;;4585717;30;114986;-78
2023/12/08 02:38:06;;;;;;;;;;;0.10;69.60;;;;;;4570728;30;114542;-80
2023/12/08 02:40:33;;;;;;;;;;;0.10;69.70;;;;;;4572577;30;114421;-79
2023/12/08 02:43:01;;;;;;;;;;;0.10;69.90;;;;;;4579065;30;114037;-79
2023/12/08 02:45:28;;;;;;;;;;;0.10;70.00;;;;;;4585203;30;114388;-80
2023/12/08 02:47:56;;;;;;;;;;;0.10;69.90;;;;;;4585620;30;114720;-80
2023/12/08 02:50:23;;;;;;;;;;;0.00;70.10;;;;;;4586775;30;114069;-80
2023/12/08 02:52:50;;;;;;;;;;;0.00;70.10;;;;;;4586870;30;114413;-80
2023/12/08 02:55:18;;;;;;;;;;;0.10;70.10;;;;;;4570570;30;114888;-80
2023/12/08 02:57:45;;;;;;;;;;;0.10;69.90;;;;;;4585081;30;114727;-79
2023/12/08 03:00:12;;;;;;;;;;;0.10;69.80;;;;;;4585851;30;114588;-79
2023/12/08 03:02:39;;;;;;;;;;;0.00;69.90;;;;;;4585680;30;114493;-79
2023/12/08 03:05:07;;;;;;;;;;;0.00;70.00;;;;;;4570989;30;115715;-80
2023/12/08 03:07:34;;;;;;;;;;;0.00;70.10;;;;;;4571601;30;114702;-79
2023/12/08 03:10:01;;;;;;;;;;;0.00;70.10;;;;;;4585714;30;114405;-81
2023/12/08 03:12:29;;;;;;;;;;;0.10;70.00;;;;;;4585811;30;114370;-80
2023/12/08 03:14:56;;;;;;;;;;;0.10;69.80;;;;;;4585374;30;114453;-81
2023/12/08 03:17:23;;;;;;;;;;;0.00;69.80;;;;;;4598197;30;114787;-80
2023/12/08 03:19:50;;;;;;;;;;;0.00;69.80;;;;;;4587874;30;114499;-79
2023/12/08 03:22:17;;;;;;;;;;;-0.10;69.70;;;;;;4601499;30;114348;-80
2023/12/08 03:24:44;;;;;;;;;;;-0.20;69.90;;;;;;4585584;30;115018;-79
2023/12/08 03:27:11;;;;;;;;;;;-0.20;69.90;;;;;;4600373;30;115048;-79
2023/12/08 03:29:40;;;;;;;;;;;-0.20;69.90;;;;;;4602525;30;114342;-80
2023/12/08 03:32:07;;;;;;;;;;;-0.30;70.00;;;;;;4602614;30;114262;-80
2023/12/08 03:34:34;;;;;;;;;;;-0.30;70.00;;;;;;4601457;30;115354;-80
2023/12/08 03:37:01;;;;;;;;;;;-0.30;70.10;;;;;;4601613;30;114611;-81
2023/12/08 03:39:28;;;;;;;;;;;-0.40;70.00;;;;;;4586731;30;114520;-80
2023/12/08 03:41:55;;;;;;;;;;;-0.40;70.10;;;;;;4587252;30;114139;-80
2023/12/08 03:44:22;;;;;;;;;;;-0.40;70.20;;;;;;4600206;30;115592;-81
2023/12/08 03:46:49;;;;;;;;;;;-0.40;70.10;;;;;;4585924;30;114632;-81
2023/12/08 03:49:17;;;;;;;;;;;-0.40;70.10;;;;;;4602314;30;114345;-80
2023/12/08 03:51:44;;;;;;;;;;;-0.60;69.90;;;;;;4615517;30;114450;-80
2023/12/08 03:54:12;;;;;;;;;;;-0.70;70.10;;;;;;4586239;30;117694;-80
2023/12/08 03:56:39;;;;;;;;;;;-0.70;70.20;;;;;;4586186;30;115931;-79
2023/12/08 03:59:06;;;;;;;;;;;-0.70;70.30;;;;;;4602124;30;114106;-80
2023/12/08 04:01:33;;;;;;;;;;;-0.70;70.40;;;;;;4602395;30;114400;-80
2023/12/08 04:04:00;;;;;;;;;;;-0.70;70.40;;;;;;4600714;30;114978;-81
2023/12/08 04:06:27;;;;;;;;;;;-0.80;70.30;;;;;;4586162;30;114691;-80
2023/12/08 04:08:54;;;;;;;;;;;-0.70;70.30;;;;;;4586886;30;114474;-81
2023/12/08 04:11:21;;;;;;;;;;;-0.70;70.30;;;;;;4573129;30;114379;-80
2023/12/08 04:13:49;;;;;;;;;;;-0.70;70.20;;;;;;4601345;30;115417;-80
2023/12/08 04:16:16;;;;;;;;;;;-0.80;70.20;;;;;;4601044;30;114889;-80
2023/12/08 04:18:43;;;;;;;;;;;-0.70;70.30;;;;;;4601875;30;114126;-81
2023/12/08 04:21:15;;;;;;;;;;;-0.70;70.20;;;;;;4602244;30;114490;-79
2023/12/08 04:23:42;;;;;;;;;;;-0.70;70.20;;;;;;4601104;30;115097;-81
2023/12/08 04:26:09;;;;;;;;;;;-0.80;70.30;;;;;;4600836;30;115748;-81
2023/12/08 04:28:37;;;;;;;;;;;-0.80;70.40;;;;;;4607520;30;114347;-80
2023/12/08 04:31:04;;;;;;;;;;;-0.80;70.30;;;;;;4610033;30;114265;-80
2023/12/08 04:33:31;;;;;;;;;;;-0.80;70.40;;;;;;4601184;30;114967;-81
2023/12/08 04:35:59;;;;;;;;;;;-0.80;70.50;;;;;;4599805;30;114532;-80
2023/12/08 04:38:26;;;;;;;;;;;-0.80;70.30;;;;;;4600763;30;114523;-79
2023/12/08 04:40:54;;;;;;;;;;;-0.90;70.30;;;;;;4601941;30;114362;-79
2023/12/08 04:43:21;;;;;;;;;;;-0.90;70.40;;;;;;4600388;30;114913;-81
2023/12/08 04:45:48;;;;;;;;;;;-0.90;70.50;;;;;;4597907;30;116612;-79
2023/12/08 04:48:15;;;;;;;;;;;-1.00;70.50;;;;;;4585164;30;114449;-79
2023/12/08 04:50:42;;;;;;;;;;;-1.00;70.60;;;;;;4585076;30;114533;-79
2023/12/08 04:53:09;;;;;;;;;;;-1.00;70.80;;;;;;4583573;30;115002;-80
2023/12/08 04:55:37;;;;;;;;;;;-1.00;70.60;;;;;;4584073;30;114871;-79
2023/12/08 04:58:04;;;;;;;;;;;-1.00;70.60;;;;;;4588155;30;114415;-80
2023/12/08 05:00:31;;;;;;;;;;;-1.00;70.60;;;;;;4593369;30;114036;-79
2023/12/08 05:02:58;;;;;;;;;;;-1.00;70.60;;;;;;4589264;30;114981;-78
2023/12/08 05:05:26;;;;;;;;;;;-1.00;70.60;;;;;;4585045;30;117248;-79
2023/12/08 05:07:53;;;;;;;;;;;-1.10;70.50;;;;;;4587426;30;115255;-78
2023/12/08 05:10:20;;;;;;;;;;;-1.10;70.50;;;;;;4600747;30;114508;-79
2023/12/08 05:12:47;;;;;;;;;;;-1.10;70.40;;;;;;4587403;30;115174;-80
2023/12/08 05:15:15;;;;;;;;;;;-1.10;70.50;;;;;;4572020;30;114607;-79
2023/12/08 05:17:43;;;;;;;;;;;-1.10;70.50;;;;;;4587517;30;114316;-80
2023/12/08 05:20:12;;;;;;;;;;;-1.10;70.60;;;;;;4587229;30;114489;-79
2023/12/08 05:22:39;;;;;;;;;;;-1.20;70.40;;;;;;4586659;30;114898;-79
2023/12/08 05:25:08;;;;;;;;;;;-1.30;70.50;;;;;;4571292;30;116979;-79
2023/12/08 05:27:35;;;;;;;;;;;-1.30;70.60;;;;;;4585943;30;114718;-79
2023/12/08 05:30:02;;;;;;;;;;;-1.30;70.60;;;;;;4587287;30;114145;-83
2023/12/08 05:32:30;;;;;;;;;;;-1.40;70.80;;;;;;4557980;30;118874;-79
2023/12/08 05:34:57;;;;;;;;;;;-1.30;70.80;;;;;;4572962;30;115199;-81
2023/12/08 05:37:24;;;;;;;;;;;-1.30;70.80;;;;;;4587769;30;114123;-81
2023/12/08 05:39:54;;;;;;;;;;;-1.30;70.80;;;;;;4573372;30;114489;-82
2023/12/08 05:42:21;;;;;;;;;;;-1.20;70.80;;;;;;4571448;30;116271;-80
2023/12/08 05:44:48;;;;;;;;;;;-1.10;70.80;;;;;;4571802;30;114665;-79
2023/12/08 05:47:15;;;;;;;;;;;-1.00;70.70;;;;;;4587134;30;114162;-80
2023/12/08 05:49:43;;;;;;;;;;;-0.90;70.60;;;;;;4571971;30;114197;-78
2023/12/08 05:52:10;;;;;;;;;;;-0.90;70.50;;;;;;4586514;30;114848;-79
2023/12/08 05:54:37;;;;;;;;;;;-0.90;70.40;;;;;;4586273;30;114683;-80
2023/12/08 05:57:04;;;;;;;;;;;-0.90;70.50;;;;;;4572042;30;114457;-80
2023/12/08 05:59:31;;;;;;;;;;;-0.80;70.40;;;;;;4600094;30;114447;-80
2023/12/08 06:01:59;;;;;;;;;;;-0.80;70.20;;;;;;4586219;30;114881;-82
2023/12/08 06:04:27;;;;;;;;;;;-0.80;70.10;;;;;;4581274;30;117461;-79
2023/12/08 06:06:54;;;;;;;;;;;-0.70;69.90;;;;;;4566778;30;114617;-81
2023/12/08 06:09:21;;;;;;;;;;;-0.80;69.80;;;;;;4568070;30;114436;-80
2023/12/08 06:11:48;;;;;;;;;;;-0.90;69.60;;;;;;4581199;30;115112;-79
2023/12/08 06:14:15;;;;;;;;;;;-0.90;69.70;;;;;;4552855;30;114657;-80
2023/12/08 06:16:43;;;;;;;;;;;-0.90;69.40;;;;;;4533650;31;114716;-79
2023/12/08 06:19:12;;;;;;;;;;;-1.10;69.30;;;;;;4543404;30;114356;-79
2023/12/08 06:21:39;;;;;;;;;;;-1.30;68.90;;;;;;4549860;31;114761;-80
2023/12/08 06:24:07;;;;;;;;;;;-1.40;69.00;;;;;;4535311;31;114785;-80
2023/12/08 06:26:34;;;;;;;;;;;-1.50;69.30;;;;;;4536144;31;114794;-78
2023/12/08 06:29:01;;;;;;;;;;;-1.60;69.50;;;;;;4520130;31;114526;-80
2023/12/08 06:31:28;;;;;;;;;;;-1.60;69.70;;;;;;4531920;31;117070;-79
2023/12/08 06:33:55;;;;;;;;;;;-1.60;69.80;;;;;;4532804;31;115730;-80
2023/12/08 06:36:45;;;;;;;;;;;-1.50;69.90;;;;;;4534142;31;114275;-81
2023/12/08 06:39:12;;;;;;;;;;;-1.40;69.90;;;;;;4533039;31;114527;-79
2023/12/08 06:41:40;;;;;;;;;;;-1.30;69.70;;;;;;4532910;31;114924;-79
2023/12/08 06:44:07;;;;;;;;;;;-1.30;69.60;;;;;;4537095;30;114693;-80
2023/12/08 06:46:34;;;;;;;;;;;-1.30;69.60;;;;;;4536464;30;115388;-80
2023/12/08 06:49:01;;;;;;;;;;;-1.20;69.60;;;;;;4549796;30;114666;-79
2023/12/08 06:51:29;;;;;;;;;;;-1.30;69.60;;;;;;4559394;30;115688;-80
2023/12/08 06:53:56;;;;;;;;;;;-1.20;69.60;;;;;;4564041;30;116086;-80
2023/12/08 06:56:23;;;;;;;;;;;-1.20;69.50;;;;;;4601338;30;115637;-80
2023/12/08 06:58:50;;;;;;;;;;;-1.20;69.50;;;;;;4587565;30;114378;-81
2023/12/08 07:01:17;;;;;;;;;;;-1.20;69.50;;;;;;4592732;30;117201;-80
2023/12/08 07:03:44;;;;;;;;;;;-1.20;69.40;;;;;;4572586;30;115128;-80
2023/12/08 07:06:11;;;;;;;;;;;-1.20;69.20;;;;;;4591055;30;114622;-81
2023/12/08 07:08:38;;;;;;;;;;;-1.20;69.20;;;;;;4575119;30;114495;-81
2023/12/08 07:11:06;;;;;;;;;;;-1.20;69.20;;;;;;4586215;30;116238;-80
2023/12/08 07:13:34;;;;;;;;;;;-1.30;69.30;;;;;;4570120;30;117344;-81
2023/12/08 07:16:01;;;;;;;;;;;-1.10;69.40;;;;;;4594509;30;114445;-79
2023/12/08 07:18:28;;;;;;;;;;;-1.10;69.50;;;;;;4577234;30;114578;-79
2023/12/08 07:20:56;;;;;;;;;;;-1.00;69.40;;;;;;4573344;30;114934;-79
2023/12/08 07:23:23;;;;;;;;;;;-1.00;69.30;;;;;;4590275;30;114776;-80
2023/12/08 07:25:50;;;;;;;;;;;-1.00;69.20;;;;;;4594839;30;114462;-79
2023/12/08 07:28:17;;;;;;;;;;;-1.00;69.20;;;;;;4579030;30;114293;-79
2023/12/08 07:30:44;;;;;;;;;;;-1.00;69.20;;;;;;4582301;30;115645;-79
2023/12/08 07:33:11;;;;;;;;;;;-1.00;69.10;;;;;;4593263;30;114540;-80
2023/12/08 07:35:38;;;;;;;;;;;-1.00;69.00;;;;;;4569345;30;114632;-79
2023/12/08 07:38:06;;;;;;;;;;;-1.00;68.90;;;;;;4575750;30;114904;-79
2023/12/08 07:40:33;;;;;;;;;;;-1.00;68.90;;;;;;4574327;30;115083;-79
2023/12/08 07:43:02;;;;;;;;;;;-1.00;68.90;;;;;;4586389;30;114856;-80
2023/12/08 07:45:29;;;;;;;;;;;-1.00;68.80;;;;;;4581295;30;114704;-79
2023/12/08 07:48:00;;;;;;;;;;;-1.00;68.90;;;;;;4593319;30;114708;-78
2023/12/08 07:50:28;;;;;;;;;;;-1.00;68.90;;;;;;4567731;30;115217;-78
2023/12/08 07:52:55;;;;;;;;;;;-0.90;68.90;;;;;;4567740;30;114668;-79
2023/12/08 07:55:22;;;;;;;;;;;-0.90;69.00;;;;;;4570140;30;114624;-79
2023/12/08 07:57:51;;;;;;;;;;;-0.90;68.90;;;;;;4594515;30;114388;-79
2023/12/08 08:00:19;;;;;;;;;;;-0.90;68.90;;;;;;4573557;30;115217;-80
2023/12/08 08:02:47;;;;;;;;;;;-0.80;68.90;;;;;;4603163;30;115133;-80
2023/12/08 08:05:14;;;;;;;;;;;-0.80;68.90;;;;;;4573932;30;114654;-80
2023/12/08 08:07:41;;;;;;;;;;;-0.80;68.80;;;;;;4602319;30;114167;-79
2023/12/08 08:10:08;;;;;;;;;;;-0.80;68.60;;;;;;4588328;30;115180;-79
2023/12/08 08:12:35;;;;;;;;;;;-0.70;68.60;;;;;;4597272;30;114590;-79
2023/12/08 08:15:02;;;;;;;;;;;-0.60;68.60;;;;;;4595538;30;114175;-80
2023/12/08 08:17:30;;;;;;;;;;;-0.60;68.60;;;;;;4598054;30;114494;-80
2023/12/08 08:19:58;;;;;;;;;;;-0.50;68.50;;;;;;4570490;30;115772;-78
2023/12/08 08:22:26;;;;;;;;;;;-0.40;68.50;;;;;;4574065;30;114683;-79
2023/12/08 08:25:01;;;;;;;;;;;-0.40;68.40;;;;;;4583849;30;114494;-80
2023/12/08 08:27:28;;;;;;;;;;;-0.30;68.40;;;;;;4569356;30;114477;-80
2023/12/08 08:29:58;;;;;;;;;;;-0.30;68.40;;;;;;4558142;30;117022;-79
2023/12/08 08:32:25;;;;;;;;;;;-0.20;68.30;;;;;;4574089;30;114683;-78
2023/12/08 08:34:55;;;;;;;;;;;-0.10;68.10;;;;;;4577926;30;114630;-80
2023/12/08 08:37:24;;;;;;;;;;;-0.20;68.10;;;;;;4601068;30;114349;-79
2023/12/08 08:39:52;;;;;;;;;;;-0.20;68.40;;;;;;4590363;30;117535;-79
2023/12/08 08:42:20;;;;;;;;;;;0.00;68.60;;;;;;4574162;30;114973;-79
2023/12/08 08:44:47;;;;;;;;;;;0.00;68.60;;;;;;4580101;30;114425;-77
2023/12/08 08:47:14;;;;;;;;;;;0.20;68.50;;;;;;4573440;30;114650;-80
2023/12/08 08:49:41;;;;;;;;;;;0.20;68.40;;;;;;4557236;30;116078;-79
2023/12/08 08:52:09;;;;;;;;;;;0.40;68.30;;;;;;4570254;30;116564;-79
2023/12/08 08:54:36;;;;;;;;;;;0.50;68.30;;;;;;4569927;30;114536;-79
2023/12/08 08:57:04;;;;;;;;;;;0.60;68.50;;;;;;4569415;30;114348;-79
2023/12/08 08:59:32;;;;;;;;;;;0.80;68.30;;;;;;4562114;30;116964;-79
2023/12/08 09:01:59;;;;;;;;;;;0.80;68.10;;;;;;4557146;30;115336;-79
2023/12/08 09:04:26;;;;;;;;;;;0.80;68.10;;;;;;4553308;30;114705;-79
2023/12/08 09:06:56;;;;;;;;;;;0.90;68.10;;;;;;4568816;30;114874;-78
2023/12/08 09:09:25;;;;;;;;;;;1.00;68.00;;;;;;4566680;30;115587;-77
2023/12/08 09:11:54;;;;;;;;;;;1.00;67.80;;;;;;4566512;30;115987;-77
2023/12/08 09:14:25;;;;;;;;;;;1.10;67.90;;;;;;4572483;30;114771;-79
2023/12/08 09:16:52;;;;;;;;;;;1.10;67.70;;;;;;4569800;30;114506;-78
2023/12/08 09:19:19;;;;;;;;;;;1.20;67.60;;;;;;4567491;30;116372;-79
2023/12/08 09:21:46;;;;;;;;;;;1.20;67.50;;;;;;4568101;30;114665;-79
2023/12/08 09:24:20;;;;;;;;;;;1.20;67.30;;;;;;4581729;30;114831;-78
2023/12/08 09:26:48;;;;;;;;;;;1.20;67.30;;;;;;4573222;30;114492;-79
2023/12/08 09:29:15;;;;;;;;;;;1.30;67.00;;;;;;4568438;30;115365;-79
2023/12/08 09:31:44;;;;;;;;;;;1.30;66.90;;;;;;4568362;30;116099;-79
2023/12/08 09:34:14;;;;;;;;;;;1.40;66.90;;;;;;4569912;30;114472;-79
2023/12/08 09:36:44;;;;;;;;;;;1.40;66.90;;;;;;4554982;30;114554;-79
2023/12/08 09:39:32;;;;;;;;;;;1.40;66.90;;;;;;4566987;30;117359;-78
2023/12/08 09:42:01;;;;;;;;;;;1.40;66.90;;;;;;4569032;30;114608;-79
2023/12/08 09:44:28;;;;;;;;;;;1.50;66.90;;;;;;4564735;30;114618;-79
2023/12/08 09:46:56;;;;;;;;;;;1.50;66.90;;;;;;4537302;30;114675;-79
2023/12/08 09:49:27;;;;;;;;;;;1.50;66.90;;;;;;4549743;30;115292;-78
2023/12/08 09:51:55;;;;;;;;;;;1.60;66.90;;;;;;4561612;30;116903;-78
2023/12/08 09:54:22;;;;;;;;;;;1.60;66.80;;;;;;4541980;30;114851;-79
2023/12/08 09:56:52;;;;;;;;;;;1.70;66.70;;;;;;4582825;30;114540;-79
2023/12/08 09:59:22;;;;;;;;;;;1.70;66.90;;;;;;4544460;30;118441;-79
2023/12/08 10:01:50;;;;;;;;;;;1.70;66.90;;;;;;4569773;30;114961;-80
2023/12/08 10:04:17;;;;;;;;;;;1.70;66.80;;;;;;4543091;30;114949;-80
2023/12/08 10:06:45;;;;;;;;;;;1.80;66.60;;;;;;4582600;30;114387;-78
2023/12/08 10:09:14;;;;;;;;;;;1.80;66.50;;;;;;4583886;30;114992;-79
2023/12/08 10:11:41;;;;;;;;;;;1.80;66.50;;;;;;4569717;30;115705;-78
2023/12/08 10:14:08;;;;;;;;;;;1.80;66.40;;;;;;4568930;30;114600;-79
2023/12/08 10:16:35;;;;;;;;;;;1.80;66.40;;;;;;4569143;30;114450;-78
2023/12/08 10:19:03;;;;;;;;;;;1.90;66.40;;;;;;4566158;30;115288;-80
2023/12/08 10:21:31;;;;;;;;;;;1.80;66.20;;;;;;4567450;30;114973;-79
2023/12/08 10:24:00;;;;;;;;;;;1.80;66.30;;;;;;4568834;30;114610;-79
2023/12/08 10:26:27;;;;;;;;;;;1.80;66.10;;;;;;4564463;30;114484;-80
2023/12/08 10:29:03;;;;;;;;;;;1.80;65.90;;;;;;4578374;30;114940;-79
2023/12/08 10:31:31;;;;;;;;;;;1.80;65.80;;;;;;4569740;30;114674;-78
2023/12/08 10:33:58;;;;;;;;;;;1.70;65.90;;;;;;4585506;30;114796;-79
2023/12/08 10:36:29;;;;;;;;;;;1.80;65.80;;;;;;4585957;30;114498;-81
2023/12/08 10:38:56;;;;;;;;;;;1.70;65.90;;;;;;4568371;30;117579;-80
2023/12/08 10:41:24;;;;;;;;;;;1.70;65.90;;;;;;4559591;30;115993;-79
2023/12/08 10:43:51;;;;;;;;;;;1.70;65.90;;;;;;4556482;30;114742;-79
2023/12/08 10:46:20;;;;;;;;;;;1.80;65.90;;;;;;4584592;30;114521;-79
2023/12/08 10:48:47;;;;;;;;;;;1.80;65.90;;;;;;4554931;30;117779;-83
2023/12/08 10:51:15;;;;;;;;;;;1.80;65.80;;;;;;4584201;30;114635;-79
2023/12/08 10:53:44;;;;;;;;;;;1.80;65.70;;;;;;4569808;30;114561;-79
2023/12/08 10:56:12;;;;;;;;;;;1.80;65.60;;;;;;4584208;30;114264;-79
2023/12/08 10:58:40;;;;;;;;;;;1.80;65.60;;;;;;4584067;30;115144;-81
2023/12/08 11:01:12;;;;;;;;;;;1.80;65.70;;;;;;4583212;30;115898;-78
2023/12/08 11:03:40;;;;;;;;;;;1.80;65.80;;;;;;4600673;30;114228;-79
2023/12/08 11:06:10;;;;;;;;;;;1.80;65.70;;;;;;4595577;30;114640;-79
2023/12/08 11:08:39;;;;;;;;;;;1.80;65.90;;;;;;4587723;30;115462;-79
2023/12/08 11:11:09;;;;;;;;;;;1.80;65.80;;;;;;4553357;30;116211;-79
2023/12/08 11:13:43;;;;;;;;;;;1.90;65.70;;;;;;4558089;30;114693;-80
2023/12/08 11:16:16;;;;;;;;;;;1.90;65.70;;;;;;4587346;30;114748;-79
2023/12/08 11:18:44;;;;;;;;;;;1.90;65.50;;;;;;4582263;30;116021;-78
2023/12/08 11:21:11;;;;;;;;;;;1.90;65.60;;;;;;4593194;30;115080;-79
2023/12/08 11:23:40;;;;;;;;;;;1.80;65.60;;;;;;4600984;30;114706;-79
2023/12/08 11:26:07;;;;;;;;;;;1.90;65.60;;;;;;4582572;30;114708;-79
2023/12/08 11:28:58;;;;;;;;;;;1.90;65.60;;;;;;4568140;30;115090;-80
2023/12/08 11:31:34;;;;;;;;;;;2.00;65.60;;;;;;4568070;30;114601;-79
2023/12/08 11:34:07;;;;;;;;;;;2.00;65.60;;;;;;4600881;30;114341;-80
2023/12/08 11:36:34;;;;;;;;;;;2.00;65.50;;;;;;4573252;30;114407;-79
2023/12/08 11:39:21;;;;;;;;;;;2.00;65.40;;;;;;4565617;30;115016;-79
2023/12/08 11:41:49;;;;;;;;;;;2.00;65.40;;;;;;4571917;30;114974;-80
2023/12/08 11:44:15;;;;;;;;;;;2.10;65.50;;;;;;4568890;30;114488;-80
2023/12/08 11:46:43;;;;;;;;;;;2.10;65.50;;;;;;4570358;30;114591;-80
2023/12/08 11:49:11;;;;;;;;;;;2.10;65.40;;;;;;4576300;30;114981;-79
2023/12/08 11:51:38;;;;;;;;;;;2.10;65.40;;;;;;4583418;30;114667;-80
2023/12/08 11:54:05;;;;;;;;;;;2.10;65.30;;;;;;4568752;30;114525;-79
2023/12/08 11:56:36;;;;;;;;;;;2.10;65.40;;;;;;4569095;30;114506;-79
2023/12/08 11:59:03;;;;;;;;;;;2.10;65.40;;;;;;4567936;30;115267;-80
2023/12/08 12:01:30;;;;;;;;;;;2.10;65.40;;;;;;4564166;30;114526;-80
2023/12/08 12:03:57;;;;;;;;;;;2.10;65.40;;;;;;4580431;30;114460;-78
2023/12/08 12:06:25;;;;;;;;;;;2.10;65.30;;;;;;4554040;30;114496;-80
2023/12/08 12:08:52;;;;;;;;;;;2.10;65.30;;;;;;4583835;30;115842;-80
2023/12/08 12:11:20;;;;;;;;;;;2.10;65.40;;;;;;4559473;30;114689;-79
2023/12/08 12:13:56;;;;;;;;;;;2.10;65.40;;;;;;4557334;30;114797;-81
2023/12/08 12:16:24;;;;;;;;;;;2.10;65.30;;;;;;4555938;30;114623;-79
2023/12/08 12:18:51;;;;;;;;;;;2.10;65.20;;;;;;4570016;30;114952;-80
2023/12/08 12:21:19;;;;;;;;;;;2.10;65.20;;;;;;4580847;30;115358;-80
2023/12/08 12:23:46;;;;;;;;;;;2.10;65.20;;;;;;4567379;30;114811;-81
2023/12/08 12:26:14;;;;;;;;;;;2.10;65.00;;;;;;4576134;30;114763;-79
2023/12/08 12:28:44;;;;;;;;;;;2.00;65.00;;;;;;4556615;30;118679;-79
2023/12/08 12:31:12;;;;;;;;;;;1.90;65.00;;;;;;4546772;30;115030;-81
2023/12/08 12:33:40;;;;;;;;;;;1.90;65.10;;;;;;4555175;30;114589;-80
2023/12/08 12:36:08;;;;;;;;;;;1.90;65.20;;;;;;4559033;30;115030;-80
2023/12/08 12:38:35;;;;;;;;;;;1.90;65.30;;;;;;4540265;30;118522;-79
2023/12/08 12:41:20;;;;;;;;;;;1.90;65.20;;;;;;4569930;30;114680;-82
2023/12/08 12:43:47;;;;;;;;;;;1.90;65.20;;;;;;4564032;30;114656;-80
2023/12/08 12:46:14;;;;;;;;;;;1.90;65.10;;;;;;4571748;30;114471;-79
2023/12/08 12:48:41;;;;;;;;;;;1.90;65.20;;;;;;4570775;30;115173;-78
2023/12/08 12:51:11;;;;;;;;;;;2.00;65.20;;;;;;4584619;30;114739;-78
2023/12/08 12:53:44;;;;;;;;;;;2.10;65.20;;;;;;4588089;30;114551;-80
2023/12/08 12:56:12;;;;;;;;;;;2.00;65.20;;;;;;4577655;30;114796;-80
2023/12/08 12:58:39;;;;;;;;;;;2.00;64.90;;;;;;4574502;30;115675;-80
2023/12/08 13:01:13;;;;;;;;;;;1.90;64.70;;;;;;4577466;30;115142;-80
2023/12/08 13:03:47;;;;;;;;;;;1.80;64.70;;;;;;4590159;30;114359;-78
2023/12/08 13:06:29;;;;;;;;;;;1.70;64.60;;;;;;4591689;30;114352;-80
2023/12/08 13:08:57;;;;;;;;;;;1.60;64.50;;;;;;4601809;30;114666;-81
2023/12/08 13:11:24;;;;;;;;;;;1.50;64.80;;;;;;4572277;30;115253;-80
2023/12/08 13:13:52;;;;;;;;;;;1.50;65.00;;;;;;4582899;30;114338;-80
2023/12/08 13:16:19;;;;;;;;;;;1.50;65.00;;;;;;4620436;30;114125;-81
2023/12/08 13:18:46;;;;;;;;;;;1.40;64.90;;;;;;4597675;30;115427;-80
2023/12/08 13:21:15;;;;;;;;;;;1.40;64.60;;;;;;4600159;30;115022;-80
2023/12/08 13:23:42;;;;;;;;;;;1.20;64.70;;;;;;4585451;30;114582;-79
2023/12/08 13:26:10;;;;;;;;;;;1.10;64.60;;;;;;4571532;30;116197;-81
2023/12/08 13:28:37;;;;;;;;;;;1.00;64.70;;;;;;4585823;30;115099;-80
2023/12/08 13:31:09;;;;;;;;;;;1.00;64.60;;;;;;4576660;30;114622;-80
2023/12/08 13:33:38;;;;;;;;;;;0.90;64.50;;;;;;4579958;30;114638;-81
2023/12/08 13:36:06;;;;;;;;;;;0.80;64.70;;;;;;4553838;30;114668;-81
2023/12/08 13:38:33;;;;;;;;;;;0.70;64.90;;;;;;4579388;30;115242;-81
2023/12/08 13:41:01;;;;;;;;;;;0.80;64.90;;;;;;4555723;30;115018;-80
2023/12/08 13:43:28;;;;;;;;;;;0.70;64.80;;;;;;4574519;30;115769;-79
2023/12/08 13:45:55;;;;;;;;;;;0.70;64.50;;;;;;4585443;30;115076;-81
2023/12/08 13:48:22;;;;;;;;;;;0.60;64.60;;;;;;4583037;30;117799;-81
2023/12/08 13:50:49;;;;;;;;;;;0.50;64.80;;;;;;4598206;30;115148;-80
2023/12/08 13:53:32;;;;;;;;;;;0.40;64.70;;;;;;4591692;30;114744;-81
2023/12/08 13:55:59;;;;;;;;;;;0.40;64.80;;;;;;4576546;30;114566;-78
2023/12/08 13:58:26;;;;;;;;;;;0.30;64.80;;;;;;4602338;30;115476;-78
2023/12/08 14:00:55;;;;;;;;;;;0.30;65.00;;;;;;4601880;30;115451;-80
2023/12/08 14:03:25;;;;;;;;;;;0.30;65.10;;;;;;4602596;30;114647;-78
2023/12/08 14:05:54;;;;;;;;;;;0.30;65.20;;;;;;4570285;30;114827;-81
2023/12/08 14:08:23;;;;;;;;;;;0.30;65.00;;;;;;4583075;30;118867;-80
2023/12/08 14:10:50;;;;;;;;;;;0.30;64.90;;;;;;4584797;30;114963;-80
2023/12/08 14:13:17;;;;;;;;;;;0.30;65.00;;;;;;4585667;30;114572;-80
2023/12/08 14:15:44;;;;;;;;;;;0.30;65.00;;;;;;4585804;30;114649;-79